sensor_id;sensor_type;location;lat;lon;timestamp;pressure;altitude;pressure_sealevel;temperature;humidity
34931;BME280;21134;49.646;8.560;2024-03-02T00:02:00;99236.78;;;3.92;100.00
34931;BME280;21134;49.646;8.560;2024-03-02T00:04:27;99236.78;;;3.92;100.00
34931;BME280;21134;49.646;8.560;2024-03-02T00:06:53;99239.31;;;3.89;100.00
34931;BME280;21134;49.646;8.560;2024-03-02T00:09:20;99231.69;;;3.86;100.00
34931;BME280;21134;49.646;8.560;2024-03-02T00:11:47;99230.00;;;3.85;100.00
34931;BME280;21134;49.646;8.560;2024-03-02T00:14:14;99231.69;;;3.83;100.00
34931;BME280;21134;49.646;8.560;2024-03-02T00:16:40;99227.50;;;3.83;100.00
34931;BME280;21134;49.646;8.560;2024-03-02T00:19:09;99234.22;;;3.81;100.00
34931;BME280;21134;49.646;8.560;2024-03-02T00:21:35;99229.13;;;3.80;100.00
34931;BME280;21134;49.646;8.560;2024-03-02T00:24:08;99219.03;;;3.81;100.00
34931;BME280;21134;49.646;8.560;2024-03-02T00:26:44;99212.28;;;3.77;100.00
34931;BME280;21134;49.646;8.560;2024-03-02T00:29:10;99213.06;;;3.73;100.00
34931;BME280;21134;49.646;8.560;2024-03-02T00:31:39;99213.91;;;3.69;100.00
34931;BME280;21134;49.646;8.560;2024-03-02T00:34:06;99221.47;;;3.66;100.00
34931;BME280;21134;49.646;8.560;2024-03-02T00:36:34;99221.44;;;3.60;100.00
34931;BME280;21134;49.646;8.560;2024-03-02T00:39:00;99220.59;;;3.58;100.00
34931;BME280;21134;49.646;8.560;2024-03-02T00:41:29;99222.25;;;3.56;100.00
34931;BME280;21134;49.646;8.560;2024-03-02T00:43:59;99218.84;;;3.52;100.00
34931;BME280;21134;49.646;8.560;2024-03-02T00:46:28;99227.28;;;3.54;100.00
34931;BME280;21134;49.646;8.560;2024-03-02T00:48:57;99223.91;;;3.52;100.00
34931;BME280;21134;49.646;8.560;2024-03-02T00:51:25;99223.91;;;3.49;100.00
34931;BME280;21134;49.646;8.560;2024-03-02T00:53:54;99223.00;;;3.42;100.00
34931;BME280;21134;49.646;8.560;2024-03-02T00:56:22;99221.31;;;3.38;100.00
34931;BME280;21134;49.646;8.560;2024-03-02T00:58:49;99229.69;;;3.36;100.00
34931;BME280;21134;49.646;8.560;2024-03-02T01:01:16;99222.97;;;3.36;100.00
34931;BME280;21134;49.646;8.560;2024-03-02T01:03:42;99235.56;;;3.33;100.00
34931;BME280;21134;49.646;8.560;2024-03-02T01:06:09;99226.25;;;3.28;100.00
34931;BME280;21134;49.646;8.560;2024-03-02T01:08:36;99230.41;;;3.21;100.00
34931;BME280;21134;49.646;8.560;2024-03-02T01:11:04;99236.28;;;3.18;100.00
34931;BME280;21134;49.646;8.560;2024-03-02T01:13:30;99234.59;;;3.19;100.00
34931;BME280;21134;49.646;8.560;2024-03-02T01:15:57;99248.03;;;3.10;100.00
34931;BME280;21134;49.646;8.560;2024-03-02T01:18:24;99243.78;;;3.09;100.00
34931;BME280;21134;49.646;8.560;2024-03-02T01:20:51;99248.81;;;3.05;100.00
34931;BME280;21134;49.646;8.560;2024-03-02T01:23:18;99242.88;;;3.02;100.00
34931;BME280;21134;49.646;8.560;2024-03-02T01:25:45;99243.69;;;2.97;100.00
34931;BME280;21134;49.646;8.560;2024-03-02T01:28:13;99242.81;;;2.92;100.00
34931;BME280;21134;49.646;8.560;2024-03-02T01:30:40;99244.44;;;2.90;100.00
34931;BME280;21134;49.646;8.560;2024-03-02T01:33:06;99235.19;;;2.89;100.00
34931;BME280;21134;49.646;8.560;2024-03-02T01:35:33;99235.97;;;2.83;100.00
34931;BME280;21134;49.646;8.560;2024-03-02T01:38:01;99229.25;;;2.85;100.00
34931;BME280;21134;49.646;8.560;2024-03-02T01:40:27;99228.41;;;2.86;100.00
34931;BME280;21134;49.646;8.560;2024-03-02T01:42:54;99222.53;;;2.84;100.00
34931;BME280;21134;49.646;8.560;2024-03-02T01:45:24;99223.31;;;2.80;100.00
34931;BME280;21134;49.646;8.560;2024-03-02T01:47:52;99216.53;;;2.77;100.00
34931;BME280;21134;49.646;8.560;2024-03-02T01:50:25;99213.19;;;2.75;100.00
34931;BME280;21134;49.646;8.560;2024-03-02T01:52:52;99215.69;;;2.75;100.00
34931;BME280;21134;49.646;8.560;2024-03-02T01:55:18;99211.47;;;2.71;100.00
34931;BME280;21134;49.646;8.560;2024-03-02T01:57:45;99207.19;;;2.67;100.00
34931;BME280;21134;49.646;8.560;2024-03-02T02:00:13;99197.94;;;2.68;100.00
34931;BME280;21134;49.646;8.560;2024-03-02T02:02:41;99196.25;;;2.67;100.00
34931;BME280;21134;49.646;8.560;2024-03-02T02:05:08;99195.38;;;2.65;100.00
34931;BME280;21134;49.646;8.560;2024-03-02T02:07:35;99195.38;;;2.63;100.00
34931;BME280;21134;49.646;8.560;2024-03-02T02:10:02;99191.19;;;2.65;100.00
34931;BME280;21134;49.646;8.560;2024-03-02T02:12:28;99192.03;;;2.66;100.00
34931;BME280;21134;49.646;8.560;2024-03-02T02:14:55;99194.53;;;2.63;100.00
34931;BME280;21134;49.646;8.560;2024-03-02T02:17:21;99191.13;;;2.59;100.00
34931;BME280;21134;49.646;8.560;2024-03-02T02:19:49;99190.25;;;2.57;100.00
34931;BME280;21134;49.646;8.560;2024-03-02T02:22:17;99193.59;;;2.54;100.00
34931;BME280;21134;49.646;8.560;2024-03-02T02:24:44;99184.31;;;2.52;100.00
34931;BME280;21134;49.646;8.560;2024-03-02T02:27:10;99186.00;;;2.50;100.00
34931;BME280;21134;49.646;8.560;2024-03-02T02:29:38;99184.28;;;2.47;100.00
34931;BME280;21134;49.646;8.560;2024-03-02T02:32:05;99175.81;;;2.44;100.00
34931;BME280;21134;49.646;8.560;2024-03-02T02:34:31;99171.56;;;2.37;100.00
34931;BME280;21134;49.646;8.560;2024-03-02T02:36:58;99174.94;;;2.40;100.00
34931;BME280;21134;49.646;8.560;2024-03-02T02:39:26;99181.69;;;2.40;100.00
34931;BME280;21134;49.646;8.560;2024-03-02T02:41:53;99179.09;;;2.35;100.00
34931;BME280;21134;49.646;8.560;2024-03-02T02:44:19;99173.19;;;2.35;100.00
34931;BME280;21134;49.646;8.560;2024-03-02T02:46:46;99171.47;;;2.30;100.00
34931;BME280;21134;49.646;8.560;2024-03-02T02:49:12;99174.00;;;2.30;100.00
34931;BME280;21134;49.646;8.560;2024-03-02T02:51:39;99171.47;;;2.30;100.00
34931;BME280;21134;49.646;8.560;2024-03-02T02:54:05;99179.88;;;2.29;100.00
34931;BME280;21134;49.646;8.560;2024-03-02T02:56:33;99178.19;;;2.27;100.00
34931;BME280;21134;49.646;8.560;2024-03-02T02:59:00;99172.28;;;2.29;100.00
34931;BME280;21134;49.646;8.560;2024-03-02T03:01:26;99167.22;;;2.26;100.00
34931;BME280;21134;49.646;8.560;2024-03-02T03:03:53;99170.53;;;2.22;100.00
34931;BME280;21134;49.646;8.560;2024-03-02T03:06:20;99172.22;;;2.22;100.00
34931;BME280;21134;49.646;8.560;2024-03-02T03:08:46;99158.69;;;2.17;100.00
34931;BME280;21134;49.646;8.560;2024-03-02T03:11:13;99158.69;;;2.17;100.00
34931;BME280;21134;49.646;8.560;2024-03-02T03:13:41;99162.91;;;2.15;100.00
34931;BME280;21134;49.646;8.560;2024-03-02T03:16:07;99154.50;;;2.14;100.00
34931;BME280;21134;49.646;8.560;2024-03-02T03:18:34;99157.81;;;2.12;100.00
34931;BME280;21134;49.646;8.560;2024-03-02T03:21:01;99154.44;;;2.11;100.00
34931;BME280;21134;49.646;8.560;2024-03-02T03:23:27;99150.25;;;2.12;100.00
34931;BME280;21134;49.646;8.560;2024-03-02T03:25:54;99146.00;;;2.09;100.00
34931;BME280;21134;49.646;8.560;2024-03-02T03:28:20;99146.00;;;2.09;100.00
34931;BME280;21134;49.646;8.560;2024-03-02T03:30:48;99156.09;;;2.09;100.00
34931;BME280;21134;49.646;8.560;2024-03-02T03:33:14;99152.72;;;2.08;100.00
34931;BME280;21134;49.646;8.560;2024-03-02T03:35:41;99156.06;;;2.06;100.00
34931;BME280;21134;49.646;8.560;2024-03-02T03:38:08;99147.63;;;2.02;100.00
34931;BME280;21134;49.646;8.560;2024-03-02T03:40:34;99145.06;;;1.99;100.00
34931;BME280;21134;49.646;8.560;2024-03-02T03:43:01;99152.63;;;1.99;100.00
34931;BME280;21134;49.646;8.560;2024-03-02T03:45:27;99162.69;;;1.96;100.00
34931;BME280;21134;49.646;8.560;2024-03-02T03:47:57;99166.84;;;1.93;100.00
34931;BME280;21134;49.646;8.560;2024-03-02T03:50:23;99159.16;;;1.85;100.00
34931;BME280;21134;49.646;8.560;2024-03-02T03:52:50;99164.19;;;1.83;100.00
34931;BME280;21134;49.646;8.560;2024-03-02T03:55:16;99158.31;;;1.84;100.00
34931;BME280;21134;49.646;8.560;2024-03-02T03:57:43;99159.97;;;1.81;100.00
34931;BME280;21134;49.646;8.560;2024-03-02T04:00:10;99164.19;;;1.83;100.00
34931;BME280;21134;49.646;8.560;2024-03-02T04:02:37;99151.59;;;1.85;100.00
34931;BME280;21134;49.646;8.560;2024-03-02T04:05:06;99155.84;;;1.88;100.00
34931;BME280;21134;49.646;8.560;2024-03-02T04:07:35;99156.63;;;1.83;100.00
34931;BME280;21134;49.646;8.560;2024-03-02T04:10:06;99157.50;;;1.87;100.00
34931;BME280;21134;49.646;8.560;2024-03-02T04:12:34;99160.00;;;1.82;100.00
34931;BME280;21134;49.646;8.560;2024-03-02T04:15:00;99150.78;;;1.86;100.00
34931;BME280;21134;49.646;8.560;2024-03-02T04:17:29;99149.97;;;1.89;100.00
34931;BME280;21134;49.646;8.560;2024-03-02T04:19:56;99158.47;;;1.97;100.00
34931;BME280;21134;49.646;8.560;2024-03-02T04:22:23;99153.44;;;1.97;100.00
34931;BME280;21134;49.646;8.560;2024-03-02T04:24:50;99153.38;;;1.94;100.00
34931;BME280;21134;49.646;8.560;2024-03-02T04:27:16;99155.06;;;1.93;100.00
34931;BME280;21134;49.646;8.560;2024-03-02T04:29:43;99150.06;;;1.95;100.00
34931;BME280;21134;49.646;8.560;2024-03-02T04:32:09;99154.28;;;1.97;100.00
34931;BME280;21134;49.646;8.560;2024-03-02T04:34:36;99161.06;;;2.03;100.00
34931;BME280;21134;49.646;8.560;2024-03-02T04:37:02;99159.44;;;2.06;100.00
34931;BME280;21134;49.646;8.560;2024-03-02T04:39:30;99164.50;;;2.08;100.00
34931;BME280;21134;49.646;8.560;2024-03-02T04:41:57;99161.94;;;2.05;100.00
34931;BME280;21134;49.646;8.560;2024-03-02T04:44:24;99159.38;;;2.03;100.00
34931;BME280;21134;49.646;8.560;2024-03-02T04:46:50;99162.78;;;2.05;100.00
34931;BME280;21134;49.646;8.560;2024-03-02T04:49:17;99153.53;;;2.04;100.00
34931;BME280;21134;49.646;8.560;2024-03-02T04:51:43;99159.41;;;2.05;100.00
34931;BME280;21134;49.646;8.560;2024-03-02T04:54:10;99153.50;;;2.01;100.00
34931;BME280;21134;49.646;8.560;2024-03-02T04:56:38;99163.63;;;2.04;100.00
34931;BME280;21134;49.646;8.560;2024-03-02T04:59:10;99161.91;;;2.02;100.00
34931;BME280;21134;49.646;8.560;2024-03-02T05:01:35;99177.88;;;2.02;100.00
34931;BME280;21134;49.646;8.560;2024-03-02T05:04:02;99179.53;;;2.00;100.00
34931;BME280;21134;49.646;8.560;2024-03-02T05:06:29;99191.31;;;2.00;100.00
34931;BME280;21134;49.646;8.560;2024-03-02T05:08:55;99192.91;;;1.93;100.00
34931;BME280;21134;49.646;8.560;2024-03-02T05:11:22;99191.22;;;1.94;100.00
34931;BME280;21134;49.646;8.560;2024-03-02T05:14:03;99186.94;;;1.88;100.00
34931;BME280;21134;49.646;8.560;2024-03-02T05:16:32;99192.81;;;1.85;100.00
34931;BME280;21134;49.646;8.560;2024-03-02T05:18:59;99190.22;;;1.81;100.00
34931;BME280;21134;49.646;8.560;2024-03-02T05:21:25;99186.81;;;1.77;100.00
34931;BME280;21134;49.646;8.560;2024-03-02T05:23:52;99188.44;;;1.75;100.00
34931;BME280;21134;49.646;8.560;2024-03-02T05:26:18;99198.50;;;1.72;100.00
34931;BME280;21134;49.646;8.560;2024-03-02T05:28:45;99201.84;;;1.71;100.00
34931;BME280;21134;49.646;8.560;2024-03-02T05:31:15;99203.53;;;1.72;100.00
34931;BME280;21134;49.646;8.560;2024-03-02T05:33:41;99204.38;;;1.70;100.00
34931;BME280;21134;49.646;8.560;2024-03-02T05:36:08;99199.34;;;1.71;100.00
34931;BME280;21134;49.646;8.560;2024-03-02T05:38:35;99204.34;;;1.68;100.00
34931;BME280;21134;49.646;8.560;2024-03-02T05:41:01;99208.53;;;1.66;100.00
34931;BME280;21134;49.646;8.560;2024-03-02T05:43:28;99207.69;;;1.67;100.00
34931;BME280;21134;49.646;8.560;2024-03-02T05:45:54;99200.97;;;1.66;100.00
34931;BME280;21134;49.646;8.560;2024-03-02T05:48:22;99203.53;;;1.69;100.00
34931;BME280;21134;49.646;8.560;2024-03-02T05:50:49;99201.84;;;1.71;100.00
34931;BME280;21134;49.646;8.560;2024-03-02T05:53:15;99207.78;;;1.75;100.00
34931;BME280;21134;49.646;8.560;2024-03-02T05:55:42;99206.16;;;1.78;100.00
34931;BME280;21134;49.646;8.560;2024-03-02T05:58:10;99211.19;;;1.77;100.00
34931;BME280;21134;49.646;8.560;2024-03-02T06:00:48;99217.09;;;1.79;100.00
34931;BME280;21134;49.646;8.560;2024-03-02T06:03:14;99209.59;;;1.82;100.00
34931;BME280;21134;49.646;8.560;2024-03-02T06:05:42;99214.63;;;1.85;100.00
34931;BME280;21134;49.646;8.560;2024-03-02T06:08:08;99209.69;;;1.91;100.00
34931;BME280;21134;49.646;8.560;2024-03-02T06:10:35;99222.38;;;1.97;100.00
34931;BME280;21134;49.646;8.560;2024-03-02T06:13:02;99220.75;;;2.02;100.00
34931;BME280;21134;49.646;8.560;2024-03-02T06:15:29;99223.34;;;2.05;100.00
34931;BME280;21134;49.646;8.560;2024-03-02T06:17:55;99222.50;;;2.06;100.00
34931;BME280;21134;49.646;8.560;2024-03-02T06:20:22;99230.09;;;2.08;100.00
34931;BME280;21134;49.646;8.560;2024-03-02T06:22:50;99225.94;;;2.13;100.00
34931;BME280;21134;49.646;8.560;2024-03-02T06:25:16;99226.81;;;2.15;100.00
34931;BME280;21134;49.646;8.560;2024-03-02T06:27:43;99228.53;;;2.18;100.00
34931;BME280;21134;49.646;8.560;2024-03-02T06:30:10;99231.06;;;2.18;100.00
34931;BME280;21134;49.646;8.560;2024-03-02T06:32:37;99225.97;;;2.15;100.00
34931;BME280;21134;49.646;8.560;2024-03-02T06:35:04;99228.44;;;2.12;100.00
34931;BME280;21134;49.646;8.560;2024-03-02T06:37:33;99224.22;;;2.10;100.00
34931;BME280;21134;49.646;8.560;2024-03-02T06:40:01;99236.00;;;2.10;100.00
34931;BME280;21134;49.646;8.560;2024-03-02T06:42:30;99227.56;;;2.08;100.00
34931;BME280;21134;49.646;8.560;2024-03-02T06:44:58;99229.25;;;2.09;100.00
34931;BME280;21134;49.646;8.560;2024-03-02T06:47:24;99235.16;;;2.08;100.00
34931;BME280;21134;49.646;8.560;2024-03-02T06:49:51;99232.59;;;2.06;100.00
34931;BME280;21134;49.646;8.560;2024-03-02T06:52:18;99231.78;;;2.07;100.00
34931;BME280;21134;49.646;8.560;2024-03-02T06:54:45;99234.25;;;2.06;100.00
34931;BME280;21134;49.646;8.560;2024-03-02T06:57:13;99225.81;;;2.04;100.00
34931;BME280;21134;49.646;8.560;2024-03-02T06:59:41;99220.75;;;2.02;100.00
34931;BME280;21134;49.646;8.560;2024-03-02T07:02:08;99227.50;;;2.03;100.00
34931;BME280;21134;49.646;8.560;2024-03-02T07:04:34;99230.06;;;2.06;100.00
34931;BME280;21134;49.646;8.560;2024-03-02T07:07:01;99242.72;;;2.08;100.00
34931;BME280;21134;49.646;8.560;2024-03-02T07:09:28;99241.88;;;2.10;100.00
34931;BME280;21134;49.646;8.560;2024-03-02T07:11:54;99238.50;;;2.10;100.00
34931;BME280;21134;49.646;8.560;2024-03-02T07:14:22;99244.44;;;2.14;100.00
34931;BME280;21134;49.646;8.560;2024-03-02T07:17:09;99249.53;;;2.17;100.00
34931;BME280;21134;49.646;8.560;2024-03-02T07:19:37;99245.34;;;2.17;100.00
34931;BME280;21134;49.646;8.560;2024-03-02T07:22:06;99240.31;;;2.19;100.00
34931;BME280;21134;49.646;8.560;2024-03-02T07:24:33;99245.41;;;2.23;100.00
34931;BME280;21134;49.646;8.560;2024-03-02T07:27:05;99249.69;;;2.29;100.00
34931;BME280;21134;49.646;8.560;2024-03-02T07:29:33;99254.88;;;2.40;100.00
34931;BME280;21134;49.646;8.560;2024-03-02T07:31:59;99251.66;;;2.53;100.00
34931;BME280;21134;49.646;8.560;2024-03-02T07:34:26;99261.06;;;2.66;100.00
34931;BME280;21134;49.646;8.560;2024-03-02T07:36:52;99252.81;;;2.83;100.00
34931;BME280;21134;49.646;8.560;2024-03-02T07:39:19;99240.44;;;3.10;100.00
34931;BME280;21134;49.646;8.560;2024-03-02T07:41:46;99258.34;;;3.36;100.00
34931;BME280;21134;49.646;8.560;2024-03-02T07:44:13;99256.84;;;3.58;100.00
34931;BME280;21134;49.646;8.560;2024-03-02T07:46:41;99267.06;;;3.80;100.00
34931;BME280;21134;49.646;8.560;2024-03-02T07:49:09;99271.44;;;3.99;100.00
34931;BME280;21134;49.646;8.560;2024-03-02T07:51:35;99268.97;;;4.17;100.00
34931;BME280;21134;49.646;8.560;2024-03-02T07:54:02;99268.25;;;4.38;100.00
34931;BME280;21134;49.646;8.560;2024-03-02T07:56:29;99273.41;;;4.64;100.00
34931;BME280;21134;49.646;8.560;2024-03-02T07:58:56;99278.56;;;4.97;100.00
34931;BME280;21134;49.646;8.560;2024-03-02T08:01:26;99291.28;;;5.27;100.00
34931;BME280;21134;49.646;8.560;2024-03-02T08:03:54;99284.53;;;5.49;100.00
34931;BME280;21134;49.646;8.560;2024-03-02T08:06:22;99288.75;;;5.79;100.00
34931;BME280;21134;49.646;8.560;2024-03-02T08:08:48;99281.94;;;5.92;100.00
34931;BME280;21134;49.646;8.560;2024-03-02T08:11:15;99287.03;;;6.04;100.00
34931;BME280;21134;49.646;8.560;2024-03-02T08:13:42;99288.72;;;6.09;100.00
34931;BME280;21134;49.646;8.560;2024-03-02T08:16:08;99288.72;;;6.19;100.00
34931;BME280;21134;49.646;8.560;2024-03-02T08:18:35;99289.50;;;6.32;100.00
34931;BME280;21134;49.646;8.560;2024-03-02T08:21:03;99286.06;;;6.45;100.00
34931;BME280;21134;49.646;8.560;2024-03-02T08:23:30;99292.75;;;6.63;100.00
34931;BME280;21134;49.646;8.560;2024-03-02T08:25:57;99285.06;;;6.82;100.00
34931;BME280;21134;49.646;8.560;2024-03-02T08:28:24;99284.13;;;6.96;100.00
34931;BME280;21134;49.646;8.560;2024-03-02T08:30:50;99286.66;;;6.98;100.00
34931;BME280;21134;49.646;8.560;2024-03-02T08:33:17;99282.44;;;6.97;100.00
34931;BME280;21134;49.646;8.560;2024-03-02T08:35:43;99282.41;;;6.98;100.00
34931;BME280;21134;49.646;8.560;2024-03-02T08:38:12;99284.09;;;7.01;100.00
34931;BME280;21134;49.646;8.560;2024-03-02T08:40:39;99282.34;;;7.09;100.00
34931;BME280;21134;49.646;8.560;2024-03-02T08:43:06;99281.41;;;7.22;100.00
34931;BME280;21134;49.646;8.560;2024-03-02T08:45:33;99282.16;;;7.34;98.67
34931;BME280;21134;49.646;8.560;2024-03-02T08:48:01;99288.84;;;7.49;97.21
34931;BME280;21134;49.646;8.560;2024-03-02T08:50:27;99286.19;;;7.62;95.99
34931;BME280;21134;49.646;8.560;2024-03-02T08:52:54;99292.78;;;7.83;96.37
34931;BME280;21134;49.646;8.560;2024-03-02T08:55:22;99290.84;;;8.07;95.49
34931;BME280;21134;49.646;8.560;2024-03-02T08:57:48;99288.13;;;8.27;92.72
34931;BME280;21134;49.646;8.560;2024-03-02T09:00:16;99287.94;;;8.42;92.71
34931;BME280;21134;49.646;8.560;2024-03-02T09:02:44;99292.09;;;8.52;92.15
34931;BME280;21134;49.646;8.560;2024-03-02T09:05:11;99285.91;;;8.70;92.29
34931;BME280;21134;49.646;8.560;2024-03-02T09:07:37;99286.56;;;8.86;89.23
34931;BME280;21134;49.646;8.560;2024-03-02T09:10:05;99285.69;;;8.89;89.08
34931;BME280;21134;49.646;8.560;2024-03-02T09:12:33;99277.09;;;8.94;88.38
34931;BME280;21134;49.646;8.560;2024-03-02T09:15:00;99283.00;;;8.96;88.22
34931;BME280;21134;49.646;8.560;2024-03-02T09:17:28;99287.00;;;9.16;85.89
34931;BME280;21134;49.646;8.560;2024-03-02T09:19:55;99285.81;;;9.37;85.61
34931;BME280;21134;49.646;8.560;2024-03-02T09:22:21;99283.75;;;9.60;84.59
34931;BME280;21134;49.646;8.560;2024-03-02T09:24:48;99280.97;;;9.74;83.23
34931;BME280;21134;49.646;8.560;2024-03-02T09:27:15;99279.00;;;9.90;80.99
34931;BME280;21134;49.646;8.560;2024-03-02T09:29:42;99278.06;;;9.94;79.82
34931;BME280;21134;49.646;8.560;2024-03-02T09:32:12;99277.84;;;10.05;79.66
34931;BME280;21134;49.646;8.560;2024-03-02T09:34:39;99283.69;;;10.13;78.55
34931;BME280;21134;49.646;8.560;2024-03-02T09:37:05;99274.97;;;10.23;78.56
34931;BME280;21134;49.646;8.560;2024-03-02T09:39:32;99269.53;;;10.40;79.57
34931;BME280;21134;49.646;8.560;2024-03-02T09:41:59;99280.38;;;10.53;77.47
34931;BME280;21134;49.646;8.560;2024-03-02T09:44:26;99273.44;;;10.59;75.54
34931;BME280;21134;49.646;8.560;2024-03-02T09:46:54;99267.44;;;10.59;75.99
34931;BME280;21134;49.646;8.560;2024-03-02T09:49:20;99266.34;;;10.72;74.86
34931;BME280;21134;49.646;8.560;2024-03-02T09:51:48;99260.97;;;10.83;73.68
34931;BME280;21134;49.646;8.560;2024-03-02T09:54:15;99262.50;;;10.91;72.87
34931;BME280;21134;49.646;8.560;2024-03-02T09:56:42;99253.81;;;10.97;71.87
34931;BME280;21134;49.646;8.560;2024-03-02T09:59:09;99253.69;;;11.03;70.68
34931;BME280;21134;49.646;8.560;2024-03-02T10:01:35;99255.94;;;11.17;69.22
34931;BME280;21134;49.646;8.560;2024-03-02T10:04:05;99251.63;;;11.19;70.13
34931;BME280;21134;49.646;8.560;2024-03-02T10:06:31;99249.75;;;11.26;70.40
34931;BME280;21134;49.646;8.560;2024-03-02T10:08:58;99250.50;;;11.29;68.92
34931;BME280;21134;49.646;8.560;2024-03-02T10:11:29;99253.75;;;11.37;67.39
34931;BME280;21134;49.646;8.560;2024-03-02T10:14:07;99246.91;;;11.38;68.18
34931;BME280;21134;49.646;8.560;2024-03-02T10:16:35;99244.94;;;11.49;67.81
34931;BME280;21134;49.646;8.560;2024-03-02T10:19:19;99247.28;;;11.58;68.41
34931;BME280;21134;49.646;8.560;2024-03-02T10:21:46;99249.78;;;11.60;67.58
34931;BME280;21134;49.646;8.560;2024-03-02T10:24:13;99244.63;;;11.61;68.34
34931;BME280;21134;49.646;8.560;2024-03-02T10:26:39;99243.59;;;11.69;68.98
34931;BME280;21134;49.646;8.560;2024-03-02T10:29:07;99237.41;;;11.76;68.78
34931;BME280;21134;49.646;8.560;2024-03-02T10:31:36;99236.41;;;11.81;69.04
34931;BME280;21134;49.646;8.560;2024-03-02T10:34:03;99240.31;;;11.96;68.38
34931;BME280;21134;49.646;8.560;2024-03-02T10:36:31;99231.75;;;11.97;68.71
34931;BME280;21134;49.646;8.560;2024-03-02T10:38:58;99227.16;;;12.08;68.60
34931;BME280;21134;49.646;8.560;2024-03-02T10:41:26;99233.91;;;12.13;67.83
34931;BME280;21134;49.646;8.560;2024-03-02T10:43:53;99231.25;;;12.16;67.46
34931;BME280;21134;49.646;8.560;2024-03-02T10:46:27;99229.06;;;12.31;67.85
34931;BME280;21134;49.646;8.560;2024-03-02T10:48:54;99227.28;;;12.35;63.78
34931;BME280;21134;49.646;8.560;2024-03-02T10:51:20;99224.56;;;12.41;66.28
34931;BME280;21134;49.646;8.560;2024-03-02T10:53:48;99227.00;;;12.44;64.40
34931;BME280;21134;49.646;8.560;2024-03-02T10:56:18;99221.69;;;12.50;63.98
34931;BME280;21134;49.646;8.560;2024-03-02T10:58:51;99222.16;;;12.65;63.57
34931;BME280;21134;49.646;8.560;2024-03-02T11:01:21;99225.28;;;12.74;62.34
34931;BME280;21134;49.646;8.560;2024-03-02T11:03:47;99217.13;;;12.88;60.71
34931;BME280;21134;49.646;8.560;2024-03-02T11:06:15;99213.66;;;13.17;60.57
34931;BME280;21134;49.646;8.560;2024-03-02T11:08:43;99215.72;;;13.34;59.42
34931;BME280;21134;49.646;8.560;2024-03-02T11:11:19;99214.25;;;13.52;59.34
34931;BME280;21134;49.646;8.560;2024-03-02T11:13:50;99213.00;;;13.64;59.11
34931;BME280;21134;49.646;8.560;2024-03-02T11:16:26;99213.25;;;13.81;58.17
34931;BME280;21134;49.646;8.560;2024-03-02T11:19:00;99217.97;;;13.93;58.78
34931;BME280;21134;49.646;8.560;2024-03-02T11:21:27;99202.41;;;14.22;57.53
34931;BME280;21134;49.646;8.560;2024-03-02T11:23:53;99206.38;;;14.30;57.72
34931;BME280;21134;49.646;8.560;2024-03-02T11:26:22;99199.03;;;14.43;57.56
34931;BME280;21134;49.646;8.560;2024-03-02T11:28:49;99198.81;;;14.49;57.31
34931;BME280;21134;49.646;8.560;2024-03-02T11:31:16;99189.56;;;14.43;56.80
34931;BME280;21134;49.646;8.560;2024-03-02T11:33:42;99192.09;;;14.22;55.52
34931;BME280;21134;49.646;8.560;2024-03-02T11:36:09;99181.59;;;14.28;55.61
34931;BME280;21134;49.646;8.560;2024-03-02T11:38:36;99180.78;;;14.49;53.44
34931;BME280;21134;49.646;8.560;2024-03-02T11:41:05;99186.09;;;14.45;54.73
34931;BME280;21134;49.646;8.560;2024-03-02T11:43:37;99177.59;;;14.66;55.21
34931;BME280;21134;49.646;8.560;2024-03-02T11:46:05;99175.00;;;14.66;54.22
34931;BME280;21134;49.646;8.560;2024-03-02T11:48:33;99167.38;;;14.64;55.04
34931;BME280;21134;49.646;8.560;2024-03-02T11:51:01;99163.09;;;14.63;54.61
34931;BME280;21134;49.646;8.560;2024-03-02T11:53:28;99153.28;;;14.73;53.56
34931;BME280;21134;49.646;8.560;2024-03-02T11:55:55;99157.59;;;14.73;52.36
34931;BME280;21134;49.646;8.560;2024-03-02T11:58:22;99149.19;;;14.68;53.26
34931;BME280;21134;49.646;8.560;2024-03-02T12:00:52;99147.53;;;14.67;52.35
34931;BME280;21134;49.646;8.560;2024-03-02T12:03:20;99143.16;;;14.69;52.78
34931;BME280;21134;49.646;8.560;2024-03-02T12:05:49;99149.69;;;14.77;52.34
34931;BME280;21134;49.646;8.560;2024-03-02T12:08:16;99151.25;;;14.81;53.18
34931;BME280;21134;49.646;8.560;2024-03-02T12:10:43;99145.25;;;14.81;53.18
34931;BME280;21134;49.646;8.560;2024-03-02T12:13:10;99138.34;;;15.03;52.21
34931;BME280;21134;49.646;8.560;2024-03-02T12:15:38;99140.13;;;15.22;52.70
34931;BME280;21134;49.646;8.560;2024-03-02T12:18:06;99134.06;;;15.43;52.22
34931;BME280;21134;49.646;8.560;2024-03-02T12:20:33;99125.44;;;15.44;51.86
34931;BME280;21134;49.646;8.560;2024-03-02T12:23:13;99129.00;;;15.42;51.42
34931;BME280;21134;49.646;8.560;2024-03-02T12:25:40;99120.63;;;15.37;51.58
34931;BME280;21134;49.646;8.560;2024-03-02T12:28:07;99120.69;;;15.35;52.15
34931;BME280;21134;49.646;8.560;2024-03-02T12:30:35;99120.44;;;15.41;51.88
34931;BME280;21134;49.646;8.560;2024-03-02T12:33:02;99124.47;;;15.47;51.85
34931;BME280;21134;49.646;8.560;2024-03-02T12:35:31;99115.00;;;15.47;52.23
34931;BME280;21134;49.646;8.560;2024-03-02T12:37:57;99114.84;;;15.50;51.78
34931;BME280;21134;49.646;8.560;2024-03-02T12:40:24;99114.31;;;15.63;52.27
34931;BME280;21134;49.646;8.560;2024-03-02T12:42:50;99111.63;;;15.66;52.88
34931;BME280;21134;49.646;8.560;2024-03-02T12:45:17;99107.69;;;15.77;51.05
34931;BME280;21134;49.646;8.560;2024-03-02T12:47:49;99106.72;;;15.80;51.65
34931;BME280;21134;49.646;8.560;2024-03-02T12:50:15;99105.59;;;15.86;51.33
34931;BME280;21134;49.646;8.560;2024-03-02T12:52:43;99096.34;;;15.81;52.46
34931;BME280;21134;49.646;8.560;2024-03-02T12:55:10;99097.41;;;15.96;52.05
34931;BME280;21134;49.646;8.560;2024-03-02T12:57:36;99102.41;;;15.99;51.53
34931;BME280;21134;49.646;8.560;2024-03-02T13:00:04;99094.69;;;15.99;50.35
34931;BME280;21134;49.646;8.560;2024-03-02T13:02:35;99095.78;;;15.94;51.18